sensor_id;sensor_type;location;lat;lon;timestamp;temperature;humidity
75161;DHT22;67232;50.096;8.716;2023-02-19T00:01:24;12.20;79.70
75161;DHT22;67232;50.096;8.716;2023-02-19T00:03:53;12.20;79.80
75161;DHT22;67232;50.096;8.716;2023-02-19T00:06:21;12.20;79.80
75161;DHT22;67232;50.096;8.716;2023-02-19T00:08:47;12.30;79.70
75161;DHT22;67232;50.096;8.716;2023-02-19T00:11:15;12.30;79.70
75161;DHT22;67232;50.096;8.716;2023-02-19T00:13:43;12.20;79.80
75161;DHT22;67232;50.096;8.716;2023-02-19T00:16:13;12.00;80.10
75161;DHT22;67232;50.096;8.716;2023-02-19T00:18:40;12.10;80.10
75161;DHT22;67232;50.096;8.716;2023-02-19T00:21:05;12.10;80.10
75161;DHT22;67232;50.096;8.716;2023-02-19T00:23:34;12.10;80.10
75161;DHT22;67232;50.096;8.716;2023-02-19T00:28:29;12.10;80.20
75161;DHT22;67232;50.096;8.716;2023-02-19T00:31:09;12.10;80.20
75161;DHT22;67232;50.096;8.716;2023-02-19T00:33:37;12.20;79.90
75161;DHT22;67232;50.096;8.716;2023-02-19T00:36:04;12.00;80.10
75161;DHT22;67232;50.096;8.716;2023-02-19T00:38:31;12.00;80.30
75161;DHT22;67232;50.096;8.716;2023-02-19T00:41:00;12.10;80.20
75161;DHT22;67232;50.096;8.716;2023-02-19T00:43:25;12.30;80.00
75161;DHT22;67232;50.096;8.716;2023-02-19T00:45:54;12.10;80.10
75161;DHT22;67232;50.096;8.716;2023-02-19T00:48:20;12.10;80.20
75161;DHT22;67232;50.096;8.716;2023-02-19T00:50:45;12.10;80.20
75161;DHT22;67232;50.096;8.716;2023-02-19T00:53:11;12.10;80.20
75161;DHT22;67232;50.096;8.716;2023-02-19T00:55:36;12.00;80.50
75161;DHT22;67232;50.096;8.716;2023-02-19T00:58:02;11.90;80.50
75161;DHT22;67232;50.096;8.716;2023-02-19T01:00:30;12.00;80.50
75161;DHT22;67232;50.096;8.716;2023-02-19T01:02:57;11.90;80.50
75161;DHT22;67232;50.096;8.716;2023-02-19T01:05:23;12.00;80.40
75161;DHT22;67232;50.096;8.716;2023-02-19T01:07:51;12.10;80.40
75161;DHT22;67232;50.096;8.716;2023-02-19T01:10:19;12.10;80.40
75161;DHT22;67232;50.096;8.716;2023-02-19T01:12:44;12.10;80.40
75161;DHT22;67232;50.096;8.716;2023-02-19T01:15:12;11.90;80.60
75161;DHT22;67232;50.096;8.716;2023-02-19T01:17:38;11.80;80.70
75161;DHT22;67232;50.096;8.716;2023-02-19T01:20:04;11.70;80.90
75161;DHT22;67232;50.096;8.716;2023-02-19T01:22:29;11.70;80.90
75161;DHT22;67232;50.096;8.716;2023-02-19T01:24:55;11.60;81.00
75161;DHT22;67232;50.096;8.716;2023-02-19T01:27:21;11.70;80.90
75161;DHT22;67232;50.096;8.716;2023-02-19T01:29:46;11.80;80.80
75161;DHT22;67232;50.096;8.716;2023-02-19T01:32:16;11.70;80.90
75161;DHT22;67232;50.096;8.716;2023-02-19T01:34:42;11.80;80.90
75161;DHT22;67232;50.096;8.716;2023-02-19T01:37:08;11.80;80.80
75161;DHT22;67232;50.096;8.716;2023-02-19T01:39:37;11.90;80.80
75161;DHT22;67232;50.096;8.716;2023-02-19T01:42:04;11.90;80.90
75161;DHT22;67232;50.096;8.716;2023-02-19T01:46:55;12.10;80.60
75161;DHT22;67232;50.096;8.716;2023-02-19T01:49:27;12.10;80.60
75161;DHT22;67232;50.096;8.716;2023-02-19T01:52:17;12.20;80.60
75161;DHT22;67232;50.096;8.716;2023-02-19T01:54:46;12.20;80.60
75161;DHT22;67232;50.096;8.716;2023-02-19T01:57:16;12.00;80.60
75161;DHT22;67232;50.096;8.716;2023-02-19T01:59:44;11.90;80.80
75161;DHT22;67232;50.096;8.716;2023-02-19T02:02:11;11.90;80.90
75161;DHT22;67232;50.096;8.716;2023-02-19T02:04:36;12.10;80.90
75161;DHT22;67232;50.096;8.716;2023-02-19T02:07:03;12.00;81.10
75161;DHT22;67232;50.096;8.716;2023-02-19T02:09:50;11.80;81.50
75161;DHT22;67232;50.096;8.716;2023-02-19T02:12:35;11.90;81.30
75161;DHT22;67232;50.096;8.716;2023-02-19T02:15:03;11.90;81.30
75161;DHT22;67232;50.096;8.716;2023-02-19T02:23:27;12.20;81.00
75161;DHT22;67232;50.096;8.716;2023-02-19T02:29:08;12.10;81.00
75161;DHT22;67232;50.096;8.716;2023-02-19T02:31:43;11.90;81.30
75161;DHT22;67232;50.096;8.716;2023-02-19T02:34:22;12.10;81.20
75161;DHT22;67232;50.096;8.716;2023-02-19T02:36:52;12.00;81.40
75161;DHT22;67232;50.096;8.716;2023-02-19T02:39:21;12.00;81.40
75161;DHT22;67232;50.096;8.716;2023-02-19T02:41:56;11.90;81.50
75161;DHT22;67232;50.096;8.716;2023-02-19T02:44:47;11.90;81.60
75161;DHT22;67232;50.096;8.716;2023-02-19T02:47:37;11.70;82.00
75161;DHT22;67232;50.096;8.716;2023-02-19T02:50:08;11.90;81.80
75161;DHT22;67232;50.096;8.716;2023-02-19T02:52:38;12.00;81.70
75161;DHT22;67232;50.096;8.716;2023-02-19T02:55:24;12.00;81.60
75161;DHT22;67232;50.096;8.716;2023-02-19T02:57:50;11.90;81.70
75161;DHT22;67232;50.096;8.716;2023-02-19T03:00:16;11.70;82.00
75161;DHT22;67232;50.096;8.716;2023-02-19T03:02:43;11.70;81.90
75161;DHT22;67232;50.096;8.716;2023-02-19T03:05:21;11.90;81.90
75161;DHT22;67232;50.096;8.716;2023-02-19T03:08:23;11.90;81.70
75161;DHT22;67232;50.096;8.716;2023-02-19T03:10:54;11.90;81.70
75161;DHT22;67232;50.096;8.716;2023-02-19T03:13:38;11.80;81.80
75161;DHT22;67232;50.096;8.716;2023-02-19T03:16:25;11.90;81.80
75161;DHT22;67232;50.096;8.716;2023-02-19T03:19:15;11.90;81.60
75161;DHT22;67232;50.096;8.716;2023-02-19T03:21:53;11.90;81.70
75161;DHT22;67232;50.096;8.716;2023-02-19T03:24:27;12.00;81.60
75161;DHT22;67232;50.096;8.716;2023-02-19T03:27:14;11.80;81.70
75161;DHT22;67232;50.096;8.716;2023-02-19T03:29:42;11.80;81.70
75161;DHT22;67232;50.096;8.716;2023-02-19T03:32:20;11.60;81.80
75161;DHT22;67232;50.096;8.716;2023-02-19T03:34:55;11.80;81.80
75161;DHT22;67232;50.096;8.716;2023-02-19T03:37:29;11.80;81.70
75161;DHT22;67232;50.096;8.716;2023-02-19T03:39:56;11.90;81.60
75161;DHT22;67232;50.096;8.716;2023-02-19T03:48:07;11.90;81.80
75161;DHT22;67232;50.096;8.716;2023-02-19T03:56:09;11.90;81.90
75161;DHT22;67232;50.096;8.716;2023-02-19T04:04:16;12.00;81.80
75161;DHT22;67232;50.096;8.716;2023-02-19T04:06:46;11.80;81.80
75161;DHT22;67232;50.096;8.716;2023-02-19T04:09:20;11.90;81.90
75161;DHT22;67232;50.096;8.716;2023-02-19T04:11:47;11.90;81.90
75161;DHT22;67232;50.096;8.716;2023-02-19T04:14:24;11.90;81.80
75161;DHT22;67232;50.096;8.716;2023-02-19T04:16:56;11.90;81.80
75161;DHT22;67232;50.096;8.716;2023-02-19T04:19:25;11.70;82.00
75161;DHT22;67232;50.096;8.716;2023-02-19T04:21:52;11.90;81.80
75161;DHT22;67232;50.096;8.716;2023-02-19T04:24:27;11.90;81.60
75161;DHT22;67232;50.096;8.716;2023-02-19T04:26:55;12.00;81.50
75161;DHT22;67232;50.096;8.716;2023-02-19T04:29:20;11.90;81.50
75161;DHT22;67232;50.096;8.716;2023-02-19T04:31:46;11.80;81.60
75161;DHT22;67232;50.096;8.716;2023-02-19T04:34:11;11.80;81.60
75161;DHT22;67232;50.096;8.716;2023-02-19T04:36:37;11.80;81.70
75161;DHT22;67232;50.096;8.716;2023-02-19T04:39:03;11.80;81.60
75161;DHT22;67232;50.096;8.716;2023-02-19T04:41:31;12.00;81.40
75161;DHT22;67232;50.096;8.716;2023-02-19T04:43:59;12.10;81.20
75161;DHT22;67232;50.096;8.716;2023-02-19T04:46:24;12.10;81.10
75161;DHT22;67232;50.096;8.716;2023-02-19T04:48:52;12.10;81.20
75161;DHT22;67232;50.096;8.716;2023-02-19T04:51:18;12.10;81.00
75161;DHT22;67232;50.096;8.716;2023-02-19T04:53:44;12.10;81.00
75161;DHT22;67232;50.096;8.716;2023-02-19T04:56:12;12.10;81.00
75161;DHT22;67232;50.096;8.716;2023-02-19T04:58:41;12.10;80.90
75161;DHT22;67232;50.096;8.716;2023-02-19T05:01:07;12.10;80.90
75161;DHT22;67232;50.096;8.716;2023-02-19T05:03:33;12.20;80.80
75161;DHT22;67232;50.096;8.716;2023-02-19T05:06:03;12.20;80.80
75161;DHT22;67232;50.096;8.716;2023-02-19T05:08:29;12.30;80.80
75161;DHT22;67232;50.096;8.716;2023-02-19T05:10:59;12.40;80.60
75161;DHT22;67232;50.096;8.716;2023-02-19T05:13:27;12.50;80.40
75161;DHT22;67232;50.096;8.716;2023-02-19T05:15:57;12.40;80.30
75161;DHT22;67232;50.096;8.716;2023-02-19T05:18:25;12.30;80.60
75161;DHT22;67232;50.096;8.716;2023-02-19T05:20:51;12.30;80.60
75161;DHT22;67232;50.096;8.716;2023-02-19T05:23:17;12.50;80.40
75161;DHT22;67232;50.096;8.716;2023-02-19T05:25:43;12.50;80.20
75161;DHT22;67232;50.096;8.716;2023-02-19T05:28:11;12.40;80.10
75161;DHT22;67232;50.096;8.716;2023-02-19T05:30:53;12.40;80.30
75161;DHT22;67232;50.096;8.716;2023-02-19T05:33:21;12.40;80.30
75161;DHT22;67232;50.096;8.716;2023-02-19T05:35:49;12.30;80.30
75161;DHT22;67232;50.096;8.716;2023-02-19T05:38:15;12.20;80.30
75161;DHT22;67232;50.096;8.716;2023-02-19T05:40:41;12.20;80.40
75161;DHT22;67232;50.096;8.716;2023-02-19T05:43:07;12.20;80.40
75161;DHT22;67232;50.096;8.716;2023-02-19T05:45:33;12.30;80.40
75161;DHT22;67232;50.096;8.716;2023-02-19T05:47:59;12.20;80.20
75161;DHT22;67232;50.096;8.716;2023-02-19T05:50:28;12.30;80.20
75161;DHT22;67232;50.096;8.716;2023-02-19T05:52:53;12.30;80.20
75161;DHT22;67232;50.096;8.716;2023-02-19T05:55:21;12.20;80.00
75161;DHT22;67232;50.096;8.716;2023-02-19T05:57:47;12.40;79.90
75161;DHT22;67232;50.096;8.716;2023-02-19T06:00:17;12.30;79.80
75161;DHT22;67232;50.096;8.716;2023-02-19T06:02:43;12.30;79.80
75161;DHT22;67232;50.096;8.716;2023-02-19T06:05:09;12.40;79.70
75161;DHT22;67232;50.096;8.716;2023-02-19T06:07:35;12.40;79.60
75161;DHT22;67232;50.096;8.716;2023-02-19T06:10:01;12.40;79.70
75161;DHT22;67232;50.096;8.716;2023-02-19T06:12:27;12.40;79.80
75161;DHT22;67232;50.096;8.716;2023-02-19T06:14:52;12.20;79.80
75161;DHT22;67232;50.096;8.716;2023-02-19T06:17:18;12.30;79.90
75161;DHT22;67232;50.096;8.716;2023-02-19T06:19:44;12.40;79.60
75161;DHT22;67232;50.096;8.716;2023-02-19T06:22:09;12.50;79.50
75161;DHT22;67232;50.096;8.716;2023-02-19T06:24:35;12.50;79.40
75161;DHT22;67232;50.096;8.716;2023-02-19T06:27:04;12.60;79.20
75161;DHT22;67232;50.096;8.716;2023-02-19T06:29:31;12.50;79.20
75161;DHT22;67232;50.096;8.716;2023-02-19T06:31:57;12.40;79.30
75161;DHT22;67232;50.096;8.716;2023-02-19T06:34:22;12.40;79.40
75161;DHT22;67232;50.096;8.716;2023-02-19T06:36:48;12.50;79.30
75161;DHT22;67232;50.096;8.716;2023-02-19T06:39:14;12.40;79.30
75161;DHT22;67232;50.096;8.716;2023-02-19T06:41:40;12.50;79.30
75161;DHT22;67232;50.096;8.716;2023-02-19T06:44:08;12.50;79.30
75161;DHT22;67232;50.096;8.716;2023-02-19T06:46:38;12.50;79.20
75161;DHT22;67232;50.096;8.716;2023-02-19T06:49:04;12.60;79.10
75161;DHT22;67232;50.096;8.716;2023-02-19T06:51:32;12.50;79.30
75161;DHT22;67232;50.096;8.716;2023-02-19T06:54:01;12.60;79.00
75161;DHT22;67232;50.096;8.716;2023-02-19T06:56:31;12.50;79.20
75161;DHT22;67232;50.096;8.716;2023-02-19T06:58:59;12.50;79.20
75161;DHT22;67232;50.096;8.716;2023-02-19T07:01:30;12.50;79.20
75161;DHT22;67232;50.096;8.716;2023-02-19T07:03:58;12.50;79.10
75161;DHT22;67232;50.096;8.716;2023-02-19T07:06:25;12.50;79.10
75161;DHT22;67232;50.096;8.716;2023-02-19T07:08:51;12.60;79.00
75161;DHT22;67232;50.096;8.716;2023-02-19T07:11:17;12.60;78.80
75161;DHT22;67232;50.096;8.716;2023-02-19T07:13:43;12.60;79.00
75161;DHT22;67232;50.096;8.716;2023-02-19T07:16:14;12.50;79.30
75161;DHT22;67232;50.096;8.716;2023-02-19T07:18:42;12.50;79.50
75161;DHT22;67232;50.096;8.716;2023-02-19T07:21:10;12.50;79.60
75161;DHT22;67232;50.096;8.716;2023-02-19T07:23:39;12.50;79.80
75161;DHT22;67232;50.096;8.716;2023-02-19T07:26:14;12.50;79.90
75161;DHT22;67232;50.096;8.716;2023-02-19T07:28:41;12.50;80.30
75161;DHT22;67232;50.096;8.716;2023-02-19T07:31:09;12.40;80.60
75161;DHT22;67232;50.096;8.716;2023-02-19T07:33:37;12.50;80.70
75161;DHT22;67232;50.096;8.716;2023-02-19T07:36:05;12.50;81.00
75161;DHT22;67232;50.096;8.716;2023-02-19T07:38:31;12.40;81.50
75161;DHT22;67232;50.096;8.716;2023-02-19T07:40:58;12.50;81.30
75161;DHT22;67232;50.096;8.716;2023-02-19T07:43:26;12.50;81.40
75161;DHT22;67232;50.096;8.716;2023-02-19T07:45:52;12.60;81.20
75161;DHT22;67232;50.096;8.716;2023-02-19T07:48:18;12.70;80.40
75161;DHT22;67232;50.096;8.716;2023-02-19T07:51:03;12.70;80.70
75161;DHT22;67232;50.096;8.716;2023-02-19T07:53:30;12.60;80.40
75161;DHT22;67232;50.096;8.716;2023-02-19T07:55:59;12.70;79.90
75161;DHT22;67232;50.096;8.716;2023-02-19T07:58:26;12.70;80.30
75161;DHT22;67232;50.096;8.716;2023-02-19T08:00:52;12.40;81.10
75161;DHT22;67232;50.096;8.716;2023-02-19T08:03:17;12.50;81.00
75161;DHT22;67232;50.096;8.716;2023-02-19T08:05:43;12.50;81.30
75161;DHT22;67232;50.096;8.716;2023-02-19T08:08:11;12.50;81.20
75161;DHT22;67232;50.096;8.716;2023-02-19T08:10:37;12.50;81.60
75161;DHT22;67232;50.096;8.716;2023-02-19T08:13:26;12.50;81.30
75161;DHT22;67232;50.096;8.716;2023-02-19T08:18:30;12.50;81.20
75161;DHT22;67232;50.096;8.716;2023-02-19T08:20:59;12.50;80.80
75161;DHT22;67232;50.096;8.716;2023-02-19T08:23:25;12.50;80.70
75161;DHT22;67232;50.096;8.716;2023-02-19T08:25:52;12.60;80.50
75161;DHT22;67232;50.096;8.716;2023-02-19T08:28:18;12.60;80.10
75161;DHT22;67232;50.096;8.716;2023-02-19T08:30:46;12.70;80.20
75161;DHT22;67232;50.096;8.716;2023-02-19T08:33:14;12.80;80.40
75161;DHT22;67232;50.096;8.716;2023-02-19T08:35:40;12.70;80.70
75161;DHT22;67232;50.096;8.716;2023-02-19T08:38:09;12.70;80.80
75161;DHT22;67232;50.096;8.716;2023-02-19T08:40:37;12.70;81.40
75161;DHT22;67232;50.096;8.716;2023-02-19T08:43:14;12.70;81.00
75161;DHT22;67232;50.096;8.716;2023-02-19T08:45:43;12.60;81.70
75161;DHT22;67232;50.096;8.716;2023-02-19T08:48:10;12.70;81.20
75161;DHT22;67232;50.096;8.716;2023-02-19T08:50:38;12.70;81.00
75161;DHT22;67232;50.096;8.716;2023-02-19T09:00:28;12.70;80.50
75161;DHT22;67232;50.096;8.716;2023-02-19T09:02:54;12.70;80.50
75161;DHT22;67232;50.096;8.716;2023-02-19T09:05:21;12.60;80.70
75161;DHT22;67232;50.096;8.716;2023-02-19T09:07:47;12.70;80.40
75161;DHT22;67232;50.096;8.716;2023-02-19T09:10:13;12.90;80.30
75161;DHT22;67232;50.096;8.716;2023-02-19T09:12:39;13.00;80.10
75161;DHT22;67232;50.096;8.716;2023-02-19T09:15:05;13.10;79.80
75161;DHT22;67232;50.096;8.716;2023-02-19T09:17:33;13.30;79.80
75161;DHT22;67232;50.096;8.716;2023-02-19T09:20:01;13.40;79.20
75161;DHT22;67232;50.096;8.716;2023-02-19T09:22:27;13.60;78.70
75161;DHT22;67232;50.096;8.716;2023-02-19T09:24:52;13.50;78.20
75161;DHT22;67232;50.096;8.716;2023-02-19T09:27:19;13.60;78.40
75161;DHT22;67232;50.096;8.716;2023-02-19T09:29:45;13.60;77.70
75161;DHT22;67232;50.096;8.716;2023-02-19T09:32:11;13.40;78.30
75161;DHT22;67232;50.096;8.716;2023-02-19T09:34:37;13.30;78.30
75161;DHT22;67232;50.096;8.716;2023-02-19T09:37:06;13.30;78.00
75161;DHT22;67232;50.096;8.716;2023-02-19T09:39:33;13.30;78.40
75161;DHT22;67232;50.096;8.716;2023-02-19T09:42:23;13.20;78.40
75161;DHT22;67232;50.096;8.716;2023-02-19T09:44:53;13.20;78.50
75161;DHT22;67232;50.096;8.716;2023-02-19T09:47:21;13.20;78.90
75161;DHT22;67232;50.096;8.716;2023-02-19T09:50:04;13.40;78.80
75161;DHT22;67232;50.096;8.716;2023-02-19T09:55:14;13.40;78.70
75161;DHT22;67232;50.096;8.716;2023-02-19T09:57:41;13.40;78.60
75161;DHT22;67232;50.096;8.716;2023-02-19T10:02:36;13.40;78.80
75161;DHT22;67232;50.096;8.716;2023-02-19T10:05:05;13.40;78.30
75161;DHT22;67232;50.096;8.716;2023-02-19T10:07:44;13.30;78.50
75161;DHT22;67232;50.096;8.716;2023-02-19T10:12:42;13.40;78.60
75161;DHT22;67232;50.096;8.716;2023-02-19T10:15:17;13.30;79.00
75161;DHT22;67232;50.096;8.716;2023-02-19T10:17:43;13.20;79.20
75161;DHT22;67232;50.096;8.716;2023-02-19T10:20:14;13.10;79.60
75161;DHT22;67232;50.096;8.716;2023-02-19T10:22:42;13.00;80.20
75161;DHT22;67232;50.096;8.716;2023-02-19T10:25:12;13.00;80.50
75161;DHT22;67232;50.096;8.716;2023-02-19T10:27:38;12.80;80.70
75161;DHT22;67232;50.096;8.716;2023-02-19T10:30:05;12.90;80.90
75161;DHT22;67232;50.096;8.716;2023-02-19T10:32:33;12.80;81.10
75161;DHT22;67232;50.096;8.716;2023-02-19T10:35:14;12.70;81.30
75161;DHT22;67232;50.096;8.716;2023-02-19T10:37:48;12.70;81.40
75161;DHT22;67232;50.096;8.716;2023-02-19T10:40:20;12.90;81.40
75161;DHT22;67232;50.096;8.716;2023-02-19T10:42:48;13.00;81.60
75161;DHT22;67232;50.096;8.716;2023-02-19T10:45:37;13.10;81.80
75161;DHT22;67232;50.096;8.716;2023-02-19T10:48:05;13.10;81.80
75161;DHT22;67232;50.096;8.716;2023-02-19T10:50:35;13.10;81.50
75161;DHT22;67232;50.096;8.716;2023-02-19T10:53:23;13.20;81.20
75161;DHT22;67232;50.096;8.716;2023-02-19T10:56:26;13.10;81.40
75161;DHT22;67232;50.096;8.716;2023-02-19T10:58:54;13.10;81.50
75161;DHT22;67232;50.096;8.716;2023-02-19T11:01:22;13.00;81.50
75161;DHT22;67232;50.096;8.716;2023-02-19T11:06:35;13.10;81.00
75161;DHT22;67232;50.096;8.716;2023-02-19T11:09:01;13.10;81.20
75161;DHT22;67232;50.096;8.716;2023-02-19T11:11:30;13.10;81.10
75161;DHT22;67232;50.096;8.716;2023-02-19T11:13:59;13.10;80.80
75161;DHT22;67232;50.096;8.716;2023-02-19T11:16:43;13.20;81.10
75161;DHT22;67232;50.096;8.716;2023-02-19T11:22:01;13.50;80.50
75161;DHT22;67232;50.096;8.716;2023-02-19T11:24:33;13.30;79.60
75161;DHT22;67232;50.096;8.716;2023-02-19T11:27:06;13.30;79.50
75161;DHT22;67232;50.096;8.716;2023-02-19T11:29:32;13.40;79.90
75161;DHT22;67232;50.096;8.716;2023-02-19T11:34:44;13.60;79.20
75161;DHT22;67232;50.096;8.716;2023-02-19T11:37:12;14.10;79.30
75161;DHT22;67232;50.096;8.716;2023-02-19T11:39:40;15.30;77.40
75161;DHT22;67232;50.096;8.716;2023-02-19T11:42:13;15.80;74.60
75161;DHT22;67232;50.096;8.716;2023-02-19T11:44:44;15.80;74.50
75161;DHT22;67232;50.096;8.716;2023-02-19T12:02:23;18.60;65.30
75161;DHT22;67232;50.096;8.716;2023-02-19T12:36:41;15.70;68.10
75161;DHT22;67232;50.096;8.716;2023-02-19T12:39:21;15.30;70.60
75161;DHT22;67232;50.096;8.716;2023-02-19T12:44:46;15.40;68.60
75161;DHT22;67232;50.096;8.716;2023-02-19T12:47:26;16.00;68.40
75161;DHT22;67232;50.096;8.716;2023-02-19T12:50:16;16.40;67.90
75161;DHT22;67232;50.096;8.716;2023-02-19T12:52:46;16.00;68.10
75161;DHT22;67232;50.096;8.716;2023-02-19T12:55:40;15.40;69.80
75161;DHT22;67232;50.096;8.716;2023-02-19T12:58:12;15.40;70.60
75161;DHT22;67232;50.096;8.716;2023-02-19T13:00:48;15.60;69.50
75161;DHT22;67232;50.096;8.716;2023-02-19T13:03:33;15.30;70.00
75161;DHT22;67232;50.096;8.716;2023-02-19T13:06:33;15.00;70.70
75161;DHT22;67232;50.096;8.716;2023-02-19T13:11:45;15.20;70.40
75161;DHT22;67232;50.096;8.716;2023-02-19T13:14:42;15.20;69.60
75161;DHT22;67232;50.096;8.716;2023-02-19T13:19:53;15.30;69.40
75161;DHT22;67232;50.096;8.716;2023-02-19T13:25:15;15.50;68.70
75161;DHT22;67232;50.096;8.716;2023-02-19T13:33:31;15.10;70.90
75161;DHT22;67232;50.096;8.716;2023-02-19T13:36:19;14.90;70.90
75161;DHT22;67232;50.096;8.716;2023-02-19T13:38:48;14.60;70.80
75161;DHT22;67232;50.096;8.716;2023-02-19T13:41:38;14.50;71.20
75161;DHT22;67232;50.096;8.716;2023-02-19T13:44:20;14.30;72.00
75161;DHT22;67232;50.096;8.716;2023-02-19T13:46:47;14.30;72.80
75161;DHT22;67232;50.096;8.716;2023-02-19T13:52:01;14.50;72.70
75161;DHT22;67232;50.096;8.716;2023-02-19T13:54:32;14.70;71.90
75161;DHT22;67232;50.096;8.716;2023-02-19T13:59:51;15.20;71.20
75161;DHT22;67232;50.096;8.716;2023-02-19T14:05:55;15.20;70.60
75161;DHT22;67232;50.096;8.716;2023-02-19T14:07:50;15.20;70.30
75161;DHT22;67232;50.096;8.716;2023-02-19T14:10:55;15.10;71.00
75161;DHT22;67232;50.096;8.716;2023-02-19T14:19:02;15.30;70.60
75161;DHT22;67232;50.096;8.716;2023-02-19T14:21:37;15.20;70.50
75161;DHT22;67232;50.096;8.716;2023-02-19T14:24:03;15.10;70.70
75161;DHT22;67232;50.096;8.716;2023-02-19T14:26:31;14.80;71.20
75161;DHT22;67232;50.096;8.716;2023-02-19T14:28:59;14.60;71.70
75161;DHT22;67232;50.096;8.716;2023-02-19T14:31:38;14.60;72.40
75161;DHT22;67232;50.096;8.716;2023-02-19T14:34:17;14.50;72.90
75161;DHT22;67232;50.096;8.716;2023-02-19T14:36:52;14.30;73.40
75161;DHT22;67232;50.096;8.716;2023-02-19T14:44:51;13.90;74.30
75161;DHT22;67232;50.096;8.716;2023-02-19T14:47:18;13.90;74.70
75161;DHT22;67232;50.096;8.716;2023-02-19T14:49:50;13.90;75.10
75161;DHT22;67232;50.096;8.716;2023-02-19T14:52:32;14.00;74.90
75161;DHT22;67232;50.096;8.716;2023-02-19T14:55:06;14.00;74.00
75161;DHT22;67232;50.096;8.716;2023-02-19T14:57:44;14.10;73.90
75161;DHT22;67232;50.096;8.716;2023-02-19T15:02:43;14.10;72.80
75161;DHT22;67232;50.096;8.716;2023-02-19T15:05:23;14.10;73.40
75161;DHT22;67232;50.096;8.716;2023-02-19T15:07:51;14.20;73.40
75161;DHT22;67232;50.096;8.716;2023-02-19T15:10:17;14.10;72.30
75161;DHT22;67232;50.096;8.716;2023-02-19T15:12:51;14.10;72.40
75161;DHT22;67232;50.096;8.716;2023-02-19T15:15:24;14.10;72.70
75161;DHT22;67232;50.096;8.716;2023-02-19T15:17:54;14.10;72.80
75161;DHT22;67232;50.096;8.716;2023-02-19T15:20:29;14.10;72.90
75161;DHT22;67232;50.096;8.716;2023-02-19T15:22:57;14.10;73.20
75161;DHT22;67232;50.096;8.716;2023-02-19T15:25:32;14.10;73.10
75161;DHT22;67232;50.096;8.716;2023-02-19T15:33:27;14.10;73.40
75161;DHT22;67232;50.096;8.716;2023-02-19T15:35:53;14.10;73.60
75161;DHT22;67232;50.096;8.716;2023-02-19T15:38:19;14.00;73.80
75161;DHT22;67232;50.096;8.716;2023-02-19T15:40:45;13.90;74.10
75161;DHT22;67232;50.096;8.716;2023-02-19T15:43:24;13.90;74.10
75161;DHT22;67232;50.096;8.716;2023-02-19T15:46:36;13.80;74.00
75161;DHT22;67232;50.096;8.716;2023-02-19T15:49:08;13.80;74.20
75161;DHT22;67232;50.096;8.716;2023-02-19T15:51:50;13.80;74.30
75161;DHT22;67232;50.096;8.716;2023-02-19T15:54:26;13.90;74.10
75161;DHT22;67232;50.096;8.716;2023-02-19T15:56:56;13.90;74.10
75161;DHT22;67232;50.096;8.716;2023-02-19T15:59:27;13.90;73.50
75161;DHT22;67232;50.096;8.716;2023-02-19T16:01:54;13.90;73.80
75161;DHT22;67232;50.096;8.716;2023-02-19T16:04:22;13.90;73.60
75161;DHT22;67232;50.096;8.716;2023-02-19T16:06:59;13.70;74.10
75161;DHT22;67232;50.096;8.716;2023-02-19T16:09:31;13.80;74.10
75161;DHT22;67232;50.096;8.716;2023-02-19T16:12:02;13.80;74.30
75161;DHT22;67232;50.096;8.716;2023-02-19T16:19:55;13.80;73.90
75161;DHT22;67232;50.096;8.716;2023-02-19T16:22:24;13.80;74.10
75161;DHT22;67232;50.096;8.716;2023-02-19T16:24:54;13.70;74.70
75161;DHT22;67232;50.096;8.716;2023-02-19T16:29:57;13.60;74.10
75161;DHT22;67232;50.096;8.716;2023-02-19T16:32:23;13.50;74.20
75161;DHT22;67232;50.096;8.716;2023-02-19T16:34:50;13.40;74.30
75161;DHT22;67232;50.096;8.716;2023-02-19T16:37:32;13.60;73.90
75161;DHT22;67232;50.096;8.716;2023-02-19T16:42:35;13.60;73.50
75161;DHT22;67232;50.096;8.716;2023-02-19T16:45:02;13.60;73.30
75161;DHT22;67232;50.096;8.716;2023-02-19T16:47:36;13.70;73.20
75161;DHT22;67232;50.096;8.716;2023-02-19T16:50:13;13.70;73.20
75161;DHT22;67232;50.096;8.716;2023-02-19T16:52:54;13.60;73.20
75161;DHT22;67232;50.096;8.716;2023-02-19T16:55:20;13.60;73.40
75161;DHT22;67232;50.096;8.716;2023-02-19T16:57:49;13.50;73.50
75161;DHT22;67232;50.096;8.716;2023-02-19T17:00:24;13.40;73.00
75161;DHT22;67232;50.096;8.716;2023-02-19T17:02:52;13.40;73.60
75161;DHT22;67232;50.096;8.716;2023-02-19T17:05:19;13.40;73.70
75161;DHT22;67232;50.096;8.716;2023-02-19T17:07:45;13.40;73.40
75161;DHT22;67232;50.096;8.716;2023-02-19T17:10:22;13.50;73.50
75161;DHT22;67232;50.096;8.716;2023-02-19T17:12:53;13.50;73.60
75161;DHT22;67232;50.096;8.716;2023-02-19T17:15:22;13.50;73.70
75161;DHT22;67232;50.096;8.716;2023-02-19T17:17:50;13.40;73.70
75161;DHT22;67232;50.096;8.716;2023-02-19T17:20:28;13.40;73.50
75161;DHT22;67232;50.096;8.716;2023-02-19T17:22:54;13.30;73.80
75161;DHT22;67232;50.096;8.716;2023-02-19T17:25:20;13.30;73.80
75161;DHT22;67232;50.096;8.716;2023-02-19T17:27:46;13.20;74.30
75161;DHT22;67232;50.096;8.716;2023-02-19T17:30:29;13.30;74.40
75161;DHT22;67232;50.096;8.716;2023-02-19T17:32:55;13.20;74.60
75161;DHT22;67232;50.096;8.716;2023-02-19T17:35:21;13.30;74.80
75161;DHT22;67232;50.096;8.716;2023-02-19T17:37:46;13.30;74.50
75161;DHT22;67232;50.096;8.716;2023-02-19T17:40:30;13.30;75.10
75161;DHT22;67232;50.096;8.716;2023-02-19T17:42:56;13.30;75.50
75161;DHT22;67232;50.096;8.716;2023-02-19T17:45:22;13.20;75.90
75161;DHT22;67232;50.096;8.716;2023-02-19T17:47:49;13.20;76.00
75161;DHT22;67232;50.096;8.716;2023-02-19T17:50:22;13.20;75.90
75161;DHT22;67232;50.096;8.716;2023-02-19T17:52:47;13.20;76.00
75161;DHT22;67232;50.096;8.716;2023-02-19T17:55:15;13.20;75.50
75161;DHT22;67232;50.096;8.716;2023-02-19T17:57:43;13.30;75.50
75161;DHT22;67232;50.096;8.716;2023-02-19T18:00:11;13.30;76.00
75161;DHT22;67232;50.096;8.716;2023-02-19T18:02:39;13.20;75.80
75161;DHT22;67232;50.096;8.716;2023-02-19T18:05:07;13.20;75.90
75161;DHT22;67232;50.096;8.716;2023-02-19T18:07:35;13.40;75.60
75161;DHT22;67232;50.096;8.716;2023-02-19T18:10:05;13.50;75.70
75161;DHT22;67232;50.096;8.716;2023-02-19T18:12:36;13.40;74.70
75161;DHT22;67232;50.096;8.716;2023-02-19T18:15:06;13.40;74.80
75161;DHT22;67232;50.096;8.716;2023-02-19T18:17:32;13.20;75.10
75161;DHT22;67232;50.096;8.716;2023-02-19T18:19:58;13.30;74.90
75161;DHT22;67232;50.096;8.716;2023-02-19T18:22:27;13.20;74.70
75161;DHT22;67232;50.096;8.716;2023-02-19T18:24:53;13.00;74.60
75161;DHT22;67232;50.096;8.716;2023-02-19T18:27:22;13.00;75.10
75161;DHT22;67232;50.096;8.716;2023-02-19T18:29:54;13.10;75.20